createdAt,value
2023-03-17T00:02:24.533Z,100.00
2023-03-17T00:04:52.989Z,100.00
2023-03-17T00:07:20.120Z,100.00
2023-03-17T00:09:47.677Z,100.00
2023-03-17T00:12:16.884Z,100.00
2023-03-17T00:14:50.159Z,100.00
2023-03-17T00:17:17.896Z,100.00
2023-03-17T00:19:48.810Z,100.00
2023-03-17T00:22:27.548Z,100.00
2023-03-17T00:24:58.964Z,100.00
2023-03-17T00:27:26.787Z,100.00
2023-03-17T00:29:55.273Z,100.00
2023-03-17T00:32:26.821Z,100.00
2023-03-17T00:34:54.988Z,100.00
2023-03-17T00:37:22.638Z,100.00
2023-03-17T00:39:53.644Z,100.00
2023-03-17T00:42:22.652Z,100.00
2023-03-17T00:44:50.642Z,100.00
2023-03-17T00:47:19.222Z,100.00
2023-03-17T00:49:48.813Z,100.00
2023-03-17T00:52:16.060Z,100.00
2023-03-17T00:54:43.859Z,100.00
2023-03-17T00:57:13.383Z,100.00
2023-03-17T00:59:43.102Z,100.00
2023-03-17T01:02:14.551Z,100.00
2023-03-17T01:04:49.972Z,100.00
2023-03-17T01:07:21.860Z,100.00
2023-03-17T01:09:50.384Z,100.00
2023-03-17T01:12:18.969Z,100.00
2023-03-17T01:14:46.556Z,100.00
2023-03-17T01:17:17.105Z,100.00
2023-03-17T01:19:46.950Z,100.00
2023-03-17T01:22:14.619Z,100.00
2023-03-17T01:24:42.553Z,100.00
2023-03-17T01:27:10.291Z,100.00
2023-03-17T01:29:38.822Z,100.00
2023-03-17T01:32:09.602Z,100.00
2023-03-17T01:34:37.430Z,100.00
2023-03-17T01:37:04.874Z,100.00
2023-03-17T01:39:32.209Z,100.00
2023-03-17T01:42:02.014Z,100.00
2023-03-17T01:44:30.029Z,100.00
2023-03-17T01:47:01.474Z,100.00
2023-03-17T01:49:36.058Z,100.00
2023-03-17T01:52:19.379Z,100.00
2023-03-17T01:54:50.867Z,100.00
2023-03-17T01:57:54.727Z,100.00
2023-03-17T02:00:24.908Z,100.00
2023-03-17T02:02:55.763Z,100.00
2023-03-17T02:05:26.971Z,100.00
2023-03-17T02:07:56.208Z,100.00
2023-03-17T02:10:27.012Z,100.00
2023-03-17T02:13:04.267Z,100.00
2023-03-17T02:15:41.820Z,100.00
2023-03-17T02:18:10.253Z,100.00
2023-03-17T02:20:37.694Z,100.00
2023-03-17T02:23:07.289Z,100.00
2023-03-17T02:25:37.782Z,100.00
2023-03-17T02:28:14.550Z,100.00
2023-03-17T02:30:43.498Z,100.00
2023-03-17T02:33:12.388Z,100.00
2023-03-17T02:35:41.058Z,100.00
2023-03-17T02:38:08.574Z,100.00
2023-03-17T02:40:35.993Z,100.00
2023-03-17T02:43:04.797Z,100.00
2023-03-17T02:45:32.575Z,100.00
2023-03-17T02:48:01.000Z,100.00
2023-03-17T02:50:29.772Z,100.00
2023-03-17T02:52:57.766Z,100.00
2023-03-17T02:55:25.401Z,100.00
2023-03-17T02:57:52.973Z,100.00
2023-03-17T03:00:22.001Z,100.00
2023-03-17T03:02:50.312Z,100.00
2023-03-17T03:05:18.101Z,100.00
2023-03-17T03:07:46.266Z,100.00
2023-03-17T03:10:14.294Z,100.00
2023-03-17T03:12:41.377Z,100.00
2023-03-17T03:15:10.085Z,100.00
2023-03-17T03:17:44.731Z,100.00
2023-03-17T03:20:21.800Z,100.00
2023-03-17T03:22:49.901Z,100.00
2023-03-17T03:25:24.160Z,100.00
2023-03-17T03:27:55.165Z,100.00
2023-03-17T03:30:26.518Z,100.00
2023-03-17T03:33:07.245Z,100.00
2023-03-17T03:35:39.281Z,100.00
2023-03-17T03:38:08.909Z,100.00
2023-03-17T03:40:41.824Z,100.00
2023-03-17T03:43:22.451Z,100.00
2023-03-17T03:45:58.211Z,100.00
2023-03-17T03:48:27.308Z,100.00
2023-03-17T03:51:12.187Z,100.00
2023-03-17T03:53:40.884Z,100.00
2023-03-17T03:56:11.827Z,100.00
2023-03-17T03:58:50.177Z,100.00
2023-03-17T04:01:19.031Z,100.00
2023-03-17T04:03:49.735Z,100.00
2023-03-17T04:06:21.721Z,100.00
2023-03-17T04:08:57.144Z,100.00
2023-03-17T04:11:27.587Z,100.00
2023-03-17T04:14:01.892Z,100.00
2023-03-17T04:16:28.822Z,100.00
2023-03-17T04:18:55.820Z,100.00
2023-03-17T04:21:22.706Z,100.00
2023-03-17T04:23:57.200Z,100.00
2023-03-17T04:26:44.430Z,100.00
2023-03-17T04:29:16.270Z,100.00
2023-03-17T04:31:46.831Z,100.00
2023-03-17T04:34:16.973Z,100.00
2023-03-17T04:36:46.507Z,100.00
2023-03-17T04:39:15.313Z,100.00
2023-03-17T04:41:42.718Z,100.00
2023-03-17T04:44:13.568Z,100.00
2023-03-17T04:46:41.035Z,100.00
2023-03-17T04:49:08.715Z,100.00
2023-03-17T04:51:37.233Z,100.00
2023-03-17T04:54:05.793Z,100.00
2023-03-17T04:56:33.517Z,100.00
2023-03-17T04:59:04.444Z,100.00
2023-03-17T05:01:32.810Z,100.00
2023-03-17T05:04:00.345Z,100.00
2023-03-17T05:06:28.935Z,100.00
2023-03-17T05:08:56.426Z,100.00
2023-03-17T05:11:25.769Z,100.00
2023-03-17T05:13:53.285Z,100.00
2023-03-17T05:16:21.076Z,100.00
2023-03-17T05:18:49.151Z,100.00
2023-03-17T05:21:17.215Z,100.00
2023-03-17T05:23:45.479Z,100.00
2023-03-17T05:26:13.609Z,100.00
2023-03-17T05:28:41.357Z,100.00
2023-03-17T05:31:10.948Z,100.00
2023-03-17T05:33:39.230Z,100.00
2023-03-17T05:36:07.476Z,100.00
2023-03-17T05:38:35.162Z,100.00
2023-03-17T05:41:03.200Z,100.00
2023-03-17T05:43:30.491Z,100.00
2023-03-17T05:45:57.831Z,100.00
2023-03-17T05:48:25.782Z,100.00
2023-03-17T05:50:56.202Z,100.00
2023-03-17T05:53:24.190Z,100.00
2023-03-17T05:55:52.866Z,100.00
2023-03-17T05:58:21.195Z,100.00
2023-03-17T06:00:57.934Z,100.00
2023-03-17T06:03:25.901Z,100.00
2023-03-17T06:05:53.766Z,100.00
2023-03-17T06:08:21.575Z,100.00
2023-03-17T06:10:48.958Z,100.00
2023-03-17T06:13:16.701Z,100.00
2023-03-17T06:15:54.293Z,99.01
2023-03-17T06:18:21.935Z,96.15
2023-03-17T06:20:49.381Z,94.14
2023-03-17T06:23:17.375Z,97.35
2023-03-17T06:25:44.678Z,93.84
2023-03-17T06:28:12.193Z,89.61
2023-03-17T06:30:40.834Z,87.84
2023-03-17T06:33:08.893Z,88.07
2023-03-17T06:35:36.291Z,88.25
2023-03-17T06:38:04.693Z,90.17
2023-03-17T06:40:32.555Z,90.35
2023-03-17T06:43:00.535Z,91.67
2023-03-17T06:45:28.127Z,89.34
2023-03-17T06:47:55.772Z,86.60
2023-03-17T06:50:23.687Z,86.96
2023-03-17T06:52:50.850Z,87.25
2023-03-17T06:55:19.568Z,87.65
2023-03-17T06:57:49.137Z,82.90
2023-03-17T07:00:18.779Z,85.29
2023-03-17T07:02:46.576Z,83.83
2023-03-17T07:05:14.426Z,82.72
2023-03-17T07:07:42.480Z,84.79
2023-03-17T07:10:11.412Z,84.32
2023-03-17T07:12:38.998Z,84.99
2023-03-17T07:15:07.013Z,84.09
2023-03-17T07:17:34.717Z,83.01
2023-03-17T07:20:02.118Z,84.95
2023-03-17T07:22:29.722Z,84.73
2023-03-17T07:24:57.787Z,85.55
2023-03-17T07:27:27.293Z,85.34
2023-03-17T07:29:55.191Z,85.34
2023-03-17T07:32:23.657Z,85.99
2023-03-17T07:34:51.477Z,83.50
2023-03-17T07:37:27.246Z,83.37
2023-03-17T07:39:54.575Z,82.19
2023-03-17T07:42:24.604Z,81.94
2023-03-17T07:44:52.111Z,81.85
2023-03-17T07:47:19.425Z,81.31
2023-03-17T07:49:47.620Z,81.50
2023-03-17T07:52:15.182Z,79.83
2023-03-17T07:54:43.266Z,82.04
2023-03-17T07:57:14.000Z,81.30
2023-03-17T07:59:42.119Z,80.76
2023-03-17T08:02:14.946Z,81.15
2023-03-17T08:04:42.674Z,81.95
2023-03-17T08:07:11.320Z,81.05
2023-03-17T08:09:38.780Z,80.88
2023-03-17T08:12:07.244Z,84.84
2023-03-17T08:14:35.161Z,83.14
2023-03-17T08:17:03.353Z,84.18
2023-03-17T08:19:37.256Z,83.07
2023-03-17T08:22:04.933Z,83.99
2023-03-17T08:24:32.980Z,84.71
2023-03-17T08:27:01.033Z,84.99
2023-03-17T08:29:37.983Z,84.81
2023-03-17T08:32:10.011Z,82.38
2023-03-17T08:34:37.926Z,83.40
2023-03-17T08:37:10.118Z,83.59
2023-03-17T08:39:39.523Z,84.51
2023-03-17T08:42:07.765Z,83.20
2023-03-17T08:44:44.066Z,84.23
2023-03-17T08:47:12.333Z,83.86
2023-03-17T08:49:40.203Z,85.15
2023-03-17T08:52:08.686Z,83.31
2023-03-17T08:54:39.049Z,84.49
2023-03-17T08:57:06.368Z,82.81
2023-03-17T08:59:34.702Z,83.49
2023-03-17T09:02:02.571Z,80.72
2023-03-17T09:04:30.031Z,82.37
2023-03-17T09:07:06.602Z,81.51
2023-03-17T09:09:35.697Z,81.15
2023-03-17T09:12:06.350Z,81.39
2023-03-17T09:14:42.767Z,83.44
2023-03-17T09:17:11.750Z,82.79
2023-03-17T09:19:39.123Z,83.32
2023-03-17T09:22:07.100Z,84.20
2023-03-17T09:24:34.572Z,85.68
2023-03-17T09:27:02.375Z,87.54
2023-03-17T09:29:29.481Z,86.22
2023-03-17T09:32:00.929Z,88.00
2023-03-17T09:34:32.023Z,89.00
2023-03-17T09:37:00.126Z,89.25
2023-03-17T09:39:27.827Z,88.48
2023-03-17T09:42:23.365Z,90.00
2023-03-17T09:44:53.896Z,88.47
2023-03-17T09:47:41.632Z,89.08
2023-03-17T09:50:16.240Z,88.12
2023-03-17T09:52:43.826Z,88.85
2023-03-17T09:55:25.423Z,85.89
2023-03-17T09:57:59.750Z,86.97
2023-03-17T10:00:33.969Z,87.15
2023-03-17T10:03:02.485Z,83.15
2023-03-17T10:05:32.788Z,84.26
2023-03-17T10:08:37.059Z,84.47
2023-03-17T10:11:44.278Z,83.49
2023-03-17T10:14:35.772Z,79.85
2023-03-17T10:17:16.132Z,81.37
2023-03-17T10:19:53.978Z,77.34
2023-03-17T10:22:27.554Z,79.83
2023-03-17T10:25:04.450Z,78.66
2023-03-17T10:27:37.435Z,80.26
2023-03-17T10:30:14.322Z,79.41
2023-03-17T10:32:43.098Z,79.98
2023-03-17T10:35:12.444Z,79.84
2023-03-17T10:37:42.564Z,78.17
2023-03-17T10:40:21.414Z,77.13
2023-03-17T10:42:53.659Z,73.86
2023-03-17T10:45:40.907Z,76.29
2023-03-17T10:48:11.189Z,74.13
2023-03-17T10:50:41.562Z,75.92
2023-03-17T10:53:28.654Z,75.60
2023-03-17T10:56:12.026Z,75.42
2023-03-17T10:58:52.546Z,75.02
2023-03-17T11:01:47.492Z,76.47
2023-03-17T11:04:28.633Z,76.84
2023-03-17T11:07:01.261Z,75.15
2023-03-17T11:09:39.421Z,75.20
2023-03-17T11:12:19.453Z,72.37
2023-03-17T11:14:48.876Z,75.76
2023-03-17T11:17:43.115Z,76.28
2023-03-17T11:20:27.401Z,72.47
2023-03-17T11:23:22.856Z,68.51
2023-03-17T11:26:03.885Z,70.17
2023-03-17T11:28:41.640Z,71.32
2023-03-17T11:31:16.986Z,71.25
2023-03-17T11:33:58.728Z,71.65
2023-03-17T11:36:51.289Z,70.46
2023-03-17T11:39:28.279Z,72.92
2023-03-17T11:42:19.026Z,74.12
2023-03-17T11:45:16.995Z,72.80
2023-03-17T11:48:02.836Z,73.85
2023-03-17T11:50:55.635Z,74.00
2023-03-17T11:53:28.501Z,73.63
2023-03-17T11:56:00.272Z,74.22
2023-03-17T11:58:40.122Z,73.37
2023-03-17T12:01:16.801Z,72.31
2023-03-17T12:03:52.390Z,73.19
2023-03-17T12:06:32.872Z,74.46
2023-03-17T12:09:26.586Z,74.53
2023-03-17T12:11:56.365Z,74.25
2023-03-17T12:14:32.948Z,73.72
2023-03-17T12:17:09.613Z,74.62
2023-03-17T12:19:43.473Z,73.98
2023-03-17T12:22:47.546Z,73.76
2023-03-17T12:25:33.946Z,74.60
2023-03-17T12:28:18.028Z,74.63
2023-03-17T12:31:00.526Z,75.21
2023-03-17T12:33:42.604Z,77.45
2023-03-17T12:36:15.712Z,76.92
2023-03-17T12:39:06.161Z,74.86
2023-03-17T12:41:45.596Z,76.10
2023-03-17T12:44:26.840Z,77.58
2023-03-17T12:47:07.188Z,75.22
2023-03-17T12:49:43.642Z,75.55
2023-03-17T12:52:39.756Z,74.47
2023-03-17T12:55:14.085Z,75.90
2023-03-17T12:57:44.783Z,75.23
2023-03-17T13:00:28.897Z,74.80
2023-03-17T13:03:15.188Z,75.42
2023-03-17T13:05:48.342Z,74.98
2023-03-17T13:08:24.865Z,74.80
2023-03-17T13:11:12.406Z,73.23
2023-03-17T13:13:55.130Z,73.26
2023-03-17T13:16:31.140Z,73.32
2023-03-17T13:19:15.606Z,74.95
2023-03-17T13:21:51.279Z,76.58
2023-03-17T13:24:18.996Z,77.04
2023-03-17T13:29:45.992Z,75.93
2023-03-17T13:32:19.328Z,75.29
2023-03-17T13:34:53.261Z,78.00
2023-03-17T13:37:49.911Z,76.86
2023-03-17T13:40:22.331Z,78.40
2023-03-17T13:43:02.719Z,76.82
2023-03-17T13:45:44.530Z,76.57
2023-03-17T13:48:29.753Z,77.83
2023-03-17T13:51:15.026Z,78.04
2023-03-17T13:53:49.633Z,79.95
2023-03-17T13:56:54.113Z,80.75
2023-03-17T13:59:54.042Z,79.98
2023-03-17T14:02:24.045Z,78.76
2023-03-17T14:04:53.927Z,79.47
2023-03-17T14:07:26.429Z,79.38
2023-03-17T14:10:00.202Z,78.42
2023-03-17T14:12:52.301Z,78.80
2023-03-17T14:15:32.422Z,79.60
2023-03-17T14:18:08.540Z,78.67
2023-03-17T14:20:36.410Z,80.02
2023-03-17T14:23:05.301Z,79.05
2023-03-17T14:25:38.706Z,80.43
2023-03-17T14:28:14.428Z,80.99
2023-03-17T14:30:57.425Z,79.66
2023-03-17T14:33:31.165Z,79.66
2023-03-17T14:36:01.420Z,79.81
2023-03-17T14:38:34.754Z,78.55
2023-03-17T14:41:30.361Z,78.11
2023-03-17T14:44:00.718Z,78.20
2023-03-17T14:46:33.898Z,78.54
2023-03-17T14:49:06.108Z,77.74
2023-03-17T14:51:39.573Z,77.61
2023-03-17T14:54:22.768Z,77.40
2023-03-17T14:57:10.122Z,76.28
2023-03-17T14:59:41.161Z,75.81
2023-03-17T15:02:30.644Z,74.52
2023-03-17T15:05:03.265Z,72.75
2023-03-17T15:07:38.798Z,72.76
2023-03-17T15:10:16.195Z,73.54
2023-03-17T15:12:46.508Z,74.11
2023-03-17T15:15:35.076Z,74.59
2023-03-17T15:18:13.869Z,74.31
2023-03-17T15:20:44.542Z,74.54
2023-03-17T15:23:27.959Z,75.23
2023-03-17T15:25:57.319Z,76.30
2023-03-17T15:28:36.260Z,75.55
2023-03-17T15:31:14.190Z,76.71
2023-03-17T15:33:42.112Z,77.21
2023-03-17T15:36:33.537Z,75.83
2023-03-17T15:39:06.297Z,75.77
2023-03-17T15:41:33.972Z,76.70
2023-03-17T15:44:04.034Z,76.99
2023-03-17T15:46:34.299Z,78.65
2023-03-17T15:49:01.606Z,79.31
2023-03-17T15:51:28.860Z,79.45
2023-03-17T15:53:56.029Z,77.61
2023-03-17T15:56:23.404Z,78.18
2023-03-17T15:58:52.994Z,78.98
2023-03-17T16:01:21.031Z,79.45
2023-03-17T16:03:48.608Z,81.09
2023-03-17T16:06:22.704Z,80.92
2023-03-17T16:08:51.212Z,81.54
2023-03-17T16:11:23.108Z,81.44
2023-03-17T16:13:50.263Z,82.69
2023-03-17T16:16:40.357Z,83.37
2023-03-17T16:19:18.899Z,82.85
2023-03-17T16:21:46.879Z,82.72
2023-03-17T16:24:17.902Z,84.31
2023-03-17T16:26:45.339Z,83.74
2023-03-17T16:29:17.791Z,84.79
2023-03-17T16:31:51.478Z,86.00
2023-03-17T16:34:25.008Z,85.27
2023-03-17T16:36:54.698Z,85.00
2023-03-17T16:39:23.808Z,85.30
2023-03-17T16:41:51.637Z,86.27
2023-03-17T16:44:21.858Z,85.99
2023-03-17T16:46:49.752Z,86.32
2023-03-17T16:49:20.735Z,87.68
2023-03-17T16:51:50.179Z,87.63
2023-03-17T16:54:20.312Z,87.46
2023-03-17T16:56:47.931Z,87.32
2023-03-17T16:59:23.862Z,87.37
2023-03-17T17:01:51.970Z,88.07
2023-03-17T17:04:19.792Z,87.45
2023-03-17T17:06:48.319Z,88.24
2023-03-17T17:09:20.347Z,87.96
2023-03-17T17:11:48.197Z,88.50
2023-03-17T17:14:16.192Z,87.77
2023-03-17T17:16:44.279Z,87.49
2023-03-17T17:19:20.629Z,88.26
2023-03-17T17:21:48.357Z,88.32
2023-03-17T17:24:16.297Z,89.01
2023-03-17T17:26:47.418Z,89.55
2023-03-17T17:29:15.638Z,90.75
2023-03-17T17:31:44.537Z,91.16
2023-03-17T17:34:12.639Z,90.89
2023-03-17T17:36:40.357Z,92.28
2023-03-17T17:39:10.048Z,92.76
2023-03-17T17:41:37.742Z,93.63
2023-03-17T17:44:06.562Z,93.77
2023-03-17T17:46:35.345Z,93.60
2023-03-17T17:49:03.071Z,93.83
2023-03-17T17:51:36.014Z,93.63
2023-03-17T17:54:04.220Z,93.31
2023-03-17T17:56:37.135Z,93.53
2023-03-17T17:59:07.894Z,92.99
2023-03-17T18:01:39.591Z,92.47
2023-03-17T18:04:07.413Z,93.53
2023-03-17T18:06:35.075Z,93.38
2023-03-17T18:09:09.158Z,93.90
2023-03-17T18:11:41.484Z,94.67
2023-03-17T18:14:11.922Z,94.62
2023-03-17T18:16:49.404Z,94.52
2023-03-17T18:19:23.441Z,95.12
2023-03-17T18:21:55.592Z,94.87
2023-03-17T18:24:34.025Z,95.01
2023-03-17T18:27:05.381Z,94.54
2023-03-17T18:29:37.762Z,95.17
2023-03-17T18:32:09.717Z,95.34
2023-03-17T18:34:47.598Z,96.09
2023-03-17T18:37:16.257Z,95.83
2023-03-17T18:39:52.496Z,95.08
2023-03-17T18:42:32.966Z,94.95
2023-03-17T18:45:02.324Z,95.25
2023-03-17T18:47:30.226Z,95.06
2023-03-17T18:50:01.955Z,95.38
2023-03-17T18:52:39.689Z,95.57
2023-03-17T18:55:08.434Z,96.39
2023-03-17T18:57:37.610Z,94.74
2023-03-17T19:00:09.732Z,95.27
2023-03-17T19:02:44.184Z,95.10
2023-03-17T19:05:16.041Z,96.12
2023-03-17T19:07:47.503Z,96.88
2023-03-17T19:10:24.643Z,97.49
2023-03-17T19:12:54.163Z,97.25
2023-03-17T19:15:24.938Z,97.44
2023-03-17T19:17:58.302Z,97.06
2023-03-17T19:20:31.629Z,96.95
2023-03-17T19:23:04.909Z,96.96
2023-03-17T19:25:37.802Z,97.05
2023-03-17T19:28:07.721Z,97.26
2023-03-17T19:30:35.848Z,97.89
2023-03-17T19:33:09.933Z,98.31
2023-03-17T19:35:38.053Z,98.03
2023-03-17T19:38:07.660Z,98.06
2023-03-17T19:40:37.935Z,98.21
2023-03-17T19:43:10.097Z,97.50
2023-03-17T19:45:38.585Z,97.35
2023-03-17T19:48:09.733Z,98.45
2023-03-17T19:50:38.510Z,98.44
2023-03-17T19:53:06.928Z,98.75
2023-03-17T19:55:35.379Z,97.79
2023-03-17T19:58:07.202Z,98.45
2023-03-17T20:00:38.407Z,97.02
2023-03-17T20:03:13.143Z,97.20
2023-03-17T20:05:41.481Z,97.81
2023-03-17T20:08:10.167Z,98.29
2023-03-17T20:10:49.535Z,98.57
2023-03-17T20:13:29.366Z,99.91
2023-03-17T20:16:02.507Z,99.46
2023-03-17T20:18:39.521Z,99.57
2023-03-17T20:21:13.479Z,99.36
2023-03-17T20:23:41.836Z,99.64
2023-03-17T20:26:09.976Z,99.85
2023-03-17T20:28:42.359Z,98.83
2023-03-17T20:31:10.186Z,100.00
2023-03-17T20:33:37.752Z,100.00
2023-03-17T20:36:16.641Z,100.00
2023-03-17T20:38:44.983Z,99.65
2023-03-17T20:41:15.400Z,99.80
2023-03-17T20:43:44.047Z,99.88
2023-03-17T20:46:21.253Z,99.31
2023-03-17T20:48:49.596Z,99.56
2023-03-17T20:51:18.723Z,100.00
2023-03-17T20:53:53.813Z,100.00
2023-03-17T20:56:24.250Z,100.00
2023-03-17T20:58:53.707Z,100.00
2023-03-17T21:01:22.805Z,100.00
2023-03-17T21:03:52.592Z,100.00
2023-03-17T21:06:21.100Z,100.00
2023-03-17T21:08:49.809Z,100.00
2023-03-17T21:11:19.525Z,99.63
2023-03-17T21:13:48.232Z,98.97
2023-03-17T21:16:28.392Z,98.33
2023-03-17T21:18:58.316Z,98.62
2023-03-17T21:21:27.754Z,99.34
2023-03-17T21:23:59.303Z,99.56
2023-03-17T21:26:31.019Z,99.56
2023-03-17T21:28:59.562Z,100.00
2023-03-17T21:31:30.350Z,99.95
2023-03-17T21:33:58.274Z,100.00
2023-03-17T21:36:26.490Z,100.00
2023-03-17T21:38:54.149Z,100.00
2023-03-17T21:41:33.969Z,99.71
2023-03-17T21:44:03.730Z,99.50
2023-03-17T21:46:32.363Z,100.00
2023-03-17T21:49:01.981Z,99.53
2023-03-17T21:51:32.929Z,99.75
2023-03-17T21:56:55.915Z,99.02
2023-03-17T21:59:44.143Z,98.90
2023-03-17T22:05:14.970Z,99.23
2023-03-17T22:08:23.232Z,99.20
2023-03-17T22:11:27.613Z,99.40
2023-03-17T22:17:59.138Z,99.27
2023-03-17T22:23:42.604Z,99.14
2023-03-17T22:23:54.360Z,99.15
2023-03-17T22:26:38.567Z,100.00
2023-03-17T22:29:17.163Z,100.00
2023-03-17T22:34:47.248Z,100.00
2023-03-17T22:37:26.946Z,100.00
2023-03-17T22:40:10.660Z,100.00
2023-03-17T22:43:06.444Z,100.00
2023-03-17T22:48:41.995Z,99.65
2023-03-17T22:51:35.753Z,99.83
2023-03-17T22:54:14.897Z,100.00
2023-03-17T22:56:58.993Z,99.45
2023-03-17T23:00:18.693Z,99.82
2023-03-17T23:03:03.982Z,99.23
2023-03-17T23:05:57.851Z,99.02
2023-03-17T23:11:43.640Z,98.61
2023-03-17T23:20:25.527Z,98.29
2023-03-17T23:23:00.977Z,98.89
2023-03-17T23:25:40.162Z,98.85
2023-03-17T23:28:48.100Z,97.20
2023-03-17T23:32:00.213Z,96.83
2023-03-17T23:34:33.395Z,98.07
2023-03-17T23:37:19.393Z,98.81
2023-03-17T23:39:47.393Z,98.14
2023-03-17T23:42:55.920Z,98.36
2023-03-17T23:48:06.349Z,100.00
2023-03-17T23:50:49.211Z,100.00
2023-03-17T23:54:02.370Z,100.00
2023-03-17T23:57:01.517Z,100.00
2023-03-17T23:59:52.089Z,100.00
